Stations météo

réclame
Mon MeteoGroup
Buresjoen, Suède (2135): Température de l'air & dewpoint: 11.07.2018 13:00:00 - 17.07.2018 13:00:00 (CEST)Buresjoen, Suède (2135): Vitesse du vent & gusts: 11.07.2018 13:00:00 - 17.07.2018 13:00:00 (CEST)Buresjoen, Suède (2135): Direction du vent: 11.07.2018 13:00:00 - 17.07.2018 13:00:00 (CEST)Buresjoen, Suède (2135): visibility: 11.07.2018 13:00:00 - 17.07.2018 13:00:00 (CEST)Buresjoen, Suède (2135): Quantités de précipitations: 11.07.2018 13:00:00 - 17.07.2018 13:00:00 (CEST)
Date & Time tt [°C] td [°C] ff [km/h] ff [knt] fx [km/h] fx [knt] dd vv [km] rr [mm]
17.07.2018 13:00:00 28,6 11,6 6 3 16 8 SSE 28 0,0
17.07.2018 12:00:00 28,2 11,7 5 3 16 9 ESE 28 0,0
17.07.2018 11:00:00 27,8 13,0 9 5 16 9 ESE 26 0,0
17.07.2018 10:00:00 26,2 14,0 4 2 12 6 SE 30 0,0
17.07.2018 09:00:00 23,3 14,8 3 2 6 3 NNW 32 0,0
17.07.2018 08:00:00 21,6 15,0 0 0 5 3 N 46 0,0
17.07.2018 07:00:00 19,2 14,0 0 0 7 4 N 45 0,0
17.07.2018 06:00:00 17,4 13,9 3 2 6 3 E 43 0,0
17.07.2018 05:00:00 14,9 12,9 4 2 9 5 ESE 35 0,0
17.07.2018 04:00:00 15,6 12,9 5 3 9 5 E 43 0,0
17.07.2018 03:00:00 15,4 12,7 4 2 8 4 E 45 0,0
17.07.2018 02:00:00 15,5 13,7 3 1 8 5 ENE 44 0,0
17.07.2018 01:00:00 16,1 13,8 4 2 8 4 E 29 0,0
17.07.2018 00:00:00 17,9 14,4 6 3 8 5 E 45 0,0
16.07.2018 23:00:00 20,7 13,9 4 2 7 4 ESE 50 0,0
16.07.2018 22:00:00 24,1 12,1 4 2 5 3 ESE 44 0,0
16.07.2018 21:00:00 26,6 10,7 4 2 10 5 SSW 45 0,0
16.07.2018 20:00:00 27,0 11,1 3 2 14 8 S 46 0,0
16.07.2018 19:00:00 27,5 11,5 6 4 13 7 WNW 41 0,0
16.07.2018 18:00:00 27,1 11,2 4 2 16 8 N 43 0,0
16.07.2018 17:00:00 27,5 10,2 4 2 19 10 W 37 0,0
16.07.2018 16:00:00 27,5 10,7 6 4 31 17 W 34 0,0
16.07.2018 15:00:00 26,1 10,7 10 6 20 11 W 41 0,0
16.07.2018 14:00:00 25,1 11,6 10 5 21 12 WNW 20 0,0
16.07.2018 13:00:00 23,8 11,5 8 4 19 11 W 35 0,0
16.07.2018 12:00:00 22,7 11,7 12 7 20 11 WSW 33 0,0
16.07.2018 11:00:00 21,0 12,4 11 6 22 12 SW 30 0,0
16.07.2018 10:00:00 19,2 11,5 6 3 21 11 WSW 39 0,0
16.07.2018 09:00:00 18,2 10,6 8 4 16 9 WNW 47 0,0
16.07.2018 08:00:00 16,8 10,9 10 6 19 11 WNW 46 0,0
16.07.2018 07:00:00 14,8 11,0 4 2 11 6 WSW 38 0,0
16.07.2018 06:00:00 12,5 10,7 4 2 7 4 SW 38 0,0
16.07.2018 05:00:00 9,0 8,1 3 1 4 2 SW 29 0,0
16.07.2018 04:00:00 8,4 8,1 0 0 6 3 N 16 0,0
16.07.2018 03:00:00 10,3 10,3 3 2 5 3 WNW 15 0,0
16.07.2018 02:00:00 9,3 8,1 2 1 7 4 SSE 48 0,0
16.07.2018 01:00:00 12,6 10,1 4 2 9 5 WNW 50 0,0
16.07.2018 00:00:00 14,7 9,7 6 4 13 7 W 50 0,0
15.07.2018 23:00:00 15,2 10,2 7 4 17 9 NW 50 0,0
15.07.2018 22:00:00 16,8 10,0 14 8 26 14 NW 42 0,0
15.07.2018 21:00:00 18,3 10,1 11 6 22 12 WNW 47 0,0
15.07.2018 20:00:00 19,6 9,8 13 7 30 16 NW 39 0,0
15.07.2018 19:00:00 20,2 9,7 13 7 29 16 WNW 31 0,0
15.07.2018 18:00:00 21,0 9,9 14 8 28 15 WNW 43 0,0
15.07.2018 17:00:00 21,2 8,8 14 8 26 14 W 38 0,0
15.07.2018 16:00:00 21,2 9,8 13 7 25 13 NW 44 0,0
15.07.2018 15:00:00 20,8 9,1 13 7 29 15 WNW 39 0,0
15.07.2018 14:00:00 20,8 8,4 13 7 27 14 WNW 41 0,0
15.07.2018 13:00:00 21,0 7,2 9 5 18 10 W 42 0,0
15.07.2018 12:00:00 20,4 7,7 8 4 19 10 W 31 0,0
15.07.2018 11:00:00 19,0 8,9 9 5 18 10 WNW 36 0,0
15.07.2018 10:00:00 17,5 9,6 11 6 17 9 WNW 39 0,0
15.07.2018 09:00:00 17,4 10,3 6 3 21 12 WNW 35 0,0
15.07.2018 08:00:00 17,0 11,1 10 5 16 9 WNW 39 0,0
15.07.2018 07:00:00 15,9 11,1 10 6 16 9 WNW 38 0,0
15.07.2018 06:00:00 14,0 11,0 2 1 7 4 WSW 42 0,0
15.07.2018 05:00:00 12,9 10,4 3 2 11 6 W 43 0,0
15.07.2018 04:00:00 11,0 9,6 5 3 9 5 WSW 34 0,0
15.07.2018 03:00:00 8,1 7,5 5 3 8 4 SE 41 0,0
15.07.2018 02:00:00 10,8 9,9 0 0 3 2 N 50 0,0
15.07.2018 01:00:00 11,9 9,5 0 0 5 3 N 50 0,0
15.07.2018 00:00:00 14,2 9,8 0 0 4 2 N 50 0,0
14.07.2018 23:00:00 17,8 9,9 0 0 5 3 N 50 0,0
14.07.2018 22:00:00 20,8 9,4 0 0 11 6 N 50 0,0
14.07.2018 21:00:00 22,9 8,2 5 3 10 6 NNW 47 0,0
14.07.2018 20:00:00 23,8 7,0 6 3 18 10 NW 36 0,0
14.07.2018 19:00:00 23,9 6,2 12 7 26 14 NW 40 0,0
14.07.2018 18:00:00 24,3 5,1 13 7 25 14 W 41 0,0
14.07.2018 17:00:00 24,4 5,7 12 7 29 16 WNW 44 0,0
14.07.2018 16:00:00 24,4 6,2 13 7 29 15 SW 41 0,0
14.07.2018 15:00:00 24,1 3,9 12 6 23 12 WSW 39 0,0
14.07.2018 14:00:00 23,4 7,5 8 5 27 15 WSW 34 0,0
14.07.2018 13:00:00 21,9 9,4 9 5 24 13 W 42 0,0
14.07.2018 12:00:00 22,0 8,8 7 4 18 10 WSW 32 0,0
14.07.2018 11:00:00 20,7 9,0 6 3 14 7 W 39 0,0
14.07.2018 10:00:00 19,5 10,8 4 2 10 6 N 38 0,0
14.07.2018 09:00:00 18,3 11,6 5 3 8 4 NNW 44 0,0
14.07.2018 08:00:00 16,4 12,4 4 2 8 5 WNW 40 0,0
14.07.2018 07:00:00 12,7 12,7 3 1 8 4 SW 12 0,0
14.07.2018 06:00:00 11,2 11,2 4 2 6 3 W 0,1 0,0
14.07.2018 05:00:00 9,3 9,3 0 0 4 2 N 0,4 0,0
14.07.2018 04:00:00 9,6 9,6 0 0 5 3 N 9 0,0
14.07.2018 03:00:00 10,2 10,2 3 2 6 4 ESE 1,4 0,0
14.07.2018 02:00:00 10,4 10,4 3 1 6 3 ESE 8 0,0
14.07.2018 01:00:00 11,8 11,3 0 0 7 4 N 28 0,0
14.07.2018 00:00:00 13,0 12,1 3 2 5 3 SE 36 0,0
13.07.2018 23:00:00 14,3 12,3 3 1 8 4 SSE 50 0,0
13.07.2018 22:00:00 16,1 12,1 5 3 9 5 WSW 45 0,0
13.07.2018 21:00:00 18,3 13,6 3 2 9 5 N 38 0,1
13.07.2018 20:00:00 17,1 13,8 2 1 17 9 E 26 0,5
13.07.2018 19:00:00 17,9 12,1 10 5 17 9 NNE 36 0,0
13.07.2018 18:00:00 18,3 10,6 9 5 22 12 W 42 0,0
13.07.2018 17:00:00 19,1 9,3 14 7 28 15 W 43 0,0
13.07.2018 16:00:00 20,4 10,2 4 2 9 5 SSW 46 0,0
13.07.2018 15:00:00 20,6 12,0 3 1 12 6 SE 41 0,0
13.07.2018 14:00:00 20,0 12,7 4 2 20 11 SSE - 0,0
13.07.2018 13:00:00 20,4 12,9 5 3 21 11 S 38 0,0
13.07.2018 12:00:00 22,2 11,9 8 4 20 11 SSE 38 0,0
13.07.2018 11:00:00 22,0 12,5 6 3 19 10 W 43 0,0
13.07.2018 10:00:00 20,6 12,0 4 2 9 5 NNE 38 0,0
13.07.2018 09:00:00 19,5 11,5 0 0 10 5 N 37 0,0
13.07.2018 08:00:00 18,3 10,4 4 2 8 5 ENE 40 0,0
13.07.2018 07:00:00 16,6 11,1 3 1 8 4 ENE 40 0,0
13.07.2018 06:00:00 13,7 10,9 0 0 5 3 N 47 0,0
13.07.2018 05:00:00 11,3 9,2 3 2 4 2 ESE 35 0,0
13.07.2018 04:00:00 12,1 9,1 0 0 4 2 N 36 0,0
13.07.2018 03:00:00 12,7 10,1 2 1 6 3 N 48 0,0
13.07.2018 02:00:00 13,2 9,3 2 1 9 5 NE 50 0,0
13.07.2018 01:00:00 14,4 8,8 4 2 8 4 ESE 50 0,0
13.07.2018 00:00:00 16,0 8,0 6 4 11 6 ESE 45 0,0
12.07.2018 23:00:00 17,4 7,4 6 3 12 7 ESE 48 0,0
12.07.2018 22:00:00 19,8 6,2 3 2 7 4 SE 33 0,0
12.07.2018 21:00:00 21,7 6,4 4 2 8 4 SSE 50 0,0
12.07.2018 20:00:00 24,6 5,9 3 2 16 9 SSE 35 0,0
12.07.2018 19:00:00 24,8 6,5 8 5 16 9 SE 34 0,0
12.07.2018 18:00:00 25,7 6,8 4 2 18 10 S 34 0,0
12.07.2018 17:00:00 23,4 5,3 4 2 17 9 S 47 0,0
12.07.2018 16:00:00 24,9 4,1 6 4 16 9 SSE 35 0,0
12.07.2018 15:00:00 24,9 5,1 6 4 14 7 S 29 0,0
12.07.2018 14:00:00 24,1 3,4 7 4 21 11 E 36 0,0
12.07.2018 13:00:00 23,9 4,8 7 4 20 11 ESE 39 0,0
12.07.2018 12:00:00 23,5 5,9 3 2 13 7 SE 35 0,0
12.07.2018 11:00:00 22,6 7,2 5 3 13 7 SE 38 0,0
12.07.2018 10:00:00 21,2 6,3 7 4 17 9 SW 35 0,0
12.07.2018 09:00:00 20,5 8,5 5 3 13 7 E 37 0,0
12.07.2018 08:00:00 19,1 9,6 2 1 5 3 NE 43 0,0
12.07.2018 07:00:00 16,0 9,4 0 0 7 4 N 46 0,0
12.07.2018 06:00:00 14,0 9,0 3 2 11 6 E 42 0,0
12.07.2018 05:00:00 11,5 8,2 7 4 13 7 ESE 37 0,0
12.07.2018 04:00:00 9,1 7,5 2 1 7 4 ESE 36 0,0
12.07.2018 03:00:00 10,3 7,7 7 4 11 6 ESE 50 0,0
12.07.2018 02:00:00 13,6 6,9 4 2 8 4 E 50 0,0
12.07.2018 01:00:00 13,9 7,7 5 3 8 4 NE 50 0,0
12.07.2018 00:00:00 15,8 7,8 0 0 8 4 N 50 0,0
11.07.2018 23:00:00 18,0 6,8 5 3 11 6 ESE 50 0,0
11.07.2018 22:00:00 20,2 6,9 4 2 10 5 SE 41 0,0
11.07.2018 21:00:00 22,5 7,1 5 3 16 9 SSE 37 0,0
11.07.2018 20:00:00 24,3 6,5 7 4 19 11 SSE 32 0,0
11.07.2018 19:00:00 25,0 6,2 8 5 19 11 SSE 28 0,0
11.07.2018 18:00:00 23,6 6,8 5 3 19 10 S 41 0,0
11.07.2018 17:00:00 24,8 7,0 11 6 21 11 ESE 38 0,0
11.07.2018 16:00:00 27,2 9,1 5 3 25 14 SE 37 0,0
11.07.2018 15:00:00 26,9 10,1 8 4 22 12 SSE 42 0,0
11.07.2018 14:00:00 23,9 11,9 5 3 13 7 SE 45 0,0
11.07.2018 13:00:00 23,9 11,6 6 3 27 15 SSE 45 0,0

tt = Température de l'air
td = dewpoint
ff = Vitesse du vent
fx = gusts
dd = Direction du vent
vv = visibility
rr = Quantités de précipitations

stations d'obs. à proximité